sensor_id;sensor_type;location;lat;lon;timestamp;pressure;altitude;pressure_sealevel;temperature;humidity
77879;BME280;67071;51.144;17.050;2023-03-26T00:00:44;99228.70;;;9.32;62.21
77879;BME280;67071;51.144;17.050;2023-03-26T00:04:18;99234.54;;;9.30;62.31
77879;BME280;67071;51.144;17.050;2023-03-26T00:07:35;99232.48;;;9.31;62.37
77879;BME280;67071;51.144;17.050;2023-03-26T00:10:49;99239.10;;;9.32;62.43
77879;BME280;67071;51.144;17.050;2023-03-26T00:14:05;99230.48;;;9.30;62.50
77879;BME280;67071;51.144;17.050;2023-03-26T00:17:20;99233.97;;;9.30;62.54
77879;BME280;67071;51.144;17.050;2023-03-26T00:20:37;99232.46;;;9.33;62.59
77879;BME280;67071;51.144;17.050;2023-03-26T00:24:03;99229.95;;;9.39;62.63
77879;BME280;67071;51.144;17.050;2023-03-26T00:27:18;99226.19;;;9.38;62.67
77879;BME280;67071;51.144;17.050;2023-03-26T00:30:34;99218.06;;;9.17;62.78
77879;BME280;67071;51.144;17.050;2023-03-26T00:33:53;99229.76;;;9.10;62.82
77879;BME280;67071;51.144;17.050;2023-03-26T00:37:11;99216.75;;;9.35;62.82
77879;BME280;67071;51.144;17.050;2023-03-26T00:40:29;99213.45;;;9.38;62.87
77879;BME280;67071;51.144;17.050;2023-03-26T00:43:57;99208.86;;;9.39;62.92
77879;BME280;67071;51.144;17.050;2023-03-26T00:47:12;99209.23;;;9.42;62.99
77879;BME280;67071;51.144;17.050;2023-03-26T00:50:27;99211.29;;;9.50;63.03
77879;BME280;67071;51.144;17.050;2023-03-26T00:53:46;99207.46;;;9.51;63.08
77879;BME280;67071;51.144;17.050;2023-03-26T00:57:09;99211.66;;;9.52;63.14
77879;BME280;67071;51.144;17.050;2023-03-26T01:00:33;99216.09;;;9.53;63.20
77879;BME280;67071;51.144;17.050;2023-03-26T01:04:18;99219.91;;;9.52;63.25
77879;BME280;67071;51.144;17.050;2023-03-26T01:07:34;99208.20;;;9.47;63.30
77879;BME280;67071;51.144;17.050;2023-03-26T01:11:03;99208.30;;;9.49;63.36
77879;BME280;67071;51.144;17.050;2023-03-26T01:14:29;99204.76;;;9.51;63.42
77879;BME280;67071;51.144;17.050;2023-03-26T01:17:44;99209.88;;;9.43;63.47
77879;BME280;67071;51.144;17.050;2023-03-26T01:21:13;99216.86;;;9.37;63.55
77879;BME280;67071;51.144;17.050;2023-03-26T01:24:37;99203.23;;;9.35;63.63
77879;BME280;67071;51.144;17.050;2023-03-26T01:27:53;99203.30;;;9.40;63.68
77879;BME280;67071;51.144;17.050;2023-03-26T01:38:13;99202.98;;;9.23;63.87
77879;BME280;67071;51.144;17.050;2023-03-26T01:41:48;99205.28;;;9.22;63.95
77879;BME280;67071;51.144;17.050;2023-03-26T01:45:20;99221.50;;;9.13;64.00
77879;BME280;67071;51.144;17.050;2023-03-26T01:48:44;99203.54;;;9.10;64.06
77879;BME280;67071;51.144;17.050;2023-03-26T01:55:34;99204.51;;;8.98;64.18
77879;BME280;67071;51.144;17.050;2023-03-26T02:02:40;99208.05;;;8.73;64.36
77879;BME280;67071;51.144;17.050;2023-03-26T02:06:21;99208.77;;;9.02;64.39
77879;BME280;67071;51.144;17.050;2023-03-26T02:09:45;99208.33;;;9.06;64.46
77879;BME280;67071;51.144;17.050;2023-03-26T02:13:05;99194.90;;;9.11;64.54
77879;BME280;67071;51.144;17.050;2023-03-26T02:16:20;99190.27;;;8.81;64.68
77879;BME280;67071;51.144;17.050;2023-03-26T02:19:41;99191.80;;;9.08;64.70
77879;BME280;67071;51.144;17.050;2023-03-26T02:22:58;99198.54;;;9.10;64.78
77879;BME280;67071;51.144;17.050;2023-03-26T02:26:16;99193.59;;;9.18;64.85
77879;BME280;67071;51.144;17.050;2023-03-26T02:29:37;99188.38;;;9.12;64.91
77879;BME280;67071;51.144;17.050;2023-03-26T02:32:58;99186.40;;;9.08;64.97
77879;BME280;67071;51.144;17.050;2023-03-26T02:36:13;99188.43;;;9.09;65.02
77879;BME280;67071;51.144;17.050;2023-03-26T02:39:27;99181.81;;;9.08;65.08
77879;BME280;67071;51.144;17.050;2023-03-26T02:42:42;99186.27;;;9.09;65.13
77879;BME280;67071;51.144;17.050;2023-03-26T02:45:57;99190.60;;;9.19;65.16
77879;BME280;67071;51.144;17.050;2023-03-26T02:49:18;99193.93;;;9.23;65.22
77879;BME280;67071;51.144;17.050;2023-03-26T02:52:35;99188.63;;;9.25;65.26
77879;BME280;67071;51.144;17.050;2023-03-26T02:55:52;99188.20;;;8.94;65.39
77879;BME280;67071;51.144;17.050;2023-03-26T02:59:09;99187.15;;;9.25;65.38
77879;BME280;67071;51.144;17.050;2023-03-26T03:02:28;99180.79;;;9.26;65.43
77879;BME280;67071;51.144;17.050;2023-03-26T03:05:54;99186.65;;;9.30;65.47
77879;BME280;67071;51.144;17.050;2023-03-26T03:09:12;99186.79;;;9.32;65.51
77879;BME280;67071;51.144;17.050;2023-03-26T03:12:27;99187.73;;;9.32;65.55
77879;BME280;67071;51.144;17.050;2023-03-26T03:15:45;99184.73;;;9.33;65.58
77879;BME280;67071;51.144;17.050;2023-03-26T03:19:00;99191.03;;;9.38;65.62
77879;BME280;67071;51.144;17.050;2023-03-26T03:22:16;99193.30;;;9.40;65.67
77879;BME280;67071;51.144;17.050;2023-03-26T03:25:37;99195.68;;;9.44;65.71
77879;BME280;67071;51.144;17.050;2023-03-26T03:28:53;99201.02;;;9.47;65.74
77879;BME280;67071;51.144;17.050;2023-03-26T03:32:10;99196.98;;;9.47;65.77
77879;BME280;67071;51.144;17.050;2023-03-26T03:35:26;99201.95;;;9.49;65.79
77879;BME280;67071;51.144;17.050;2023-03-26T03:38:41;99203.03;;;9.50;65.81
77879;BME280;67071;51.144;17.050;2023-03-26T03:41:55;99217.91;;;9.50;65.83
77879;BME280;67071;51.144;17.050;2023-03-26T03:45:11;99219.43;;;9.47;65.85
77879;BME280;67071;51.144;17.050;2023-03-26T03:48:27;99205.53;;;9.35;65.85
77879;BME280;67071;51.144;17.050;2023-03-26T03:51:43;99209.72;;;9.25;65.86
77879;BME280;67071;51.144;17.050;2023-03-26T03:54:59;99212.20;;;9.22;65.87
77879;BME280;67071;51.144;17.050;2023-03-26T03:58:50;99219.02;;;9.17;65.90
77879;BME280;67071;51.144;17.050;2023-03-26T04:02:09;99218.88;;;9.17;65.92
77879;BME280;67071;51.144;17.050;2023-03-26T04:05:25;99219.91;;;9.21;65.96
77879;BME280;67071;51.144;17.050;2023-03-26T04:08:39;99215.01;;;9.23;66.01
77879;BME280;67071;51.144;17.050;2023-03-26T04:11:59;99220.41;;;9.26;66.04
77879;BME280;67071;51.144;17.050;2023-03-26T04:15:14;99222.19;;;9.33;66.11
77879;BME280;67071;51.144;17.050;2023-03-26T04:18:32;99228.64;;;9.34;66.16
77879;BME280;67071;51.144;17.050;2023-03-26T04:22:08;99225.70;;;9.43;66.19
77879;BME280;67071;51.144;17.050;2023-03-26T04:25:30;99222.78;;;9.48;66.22
77879;BME280;67071;51.144;17.050;2023-03-26T04:28:54;99232.33;;;9.53;66.23
77879;BME280;67071;51.144;17.050;2023-03-26T04:35:36;99226.23;;;9.63;66.21
77879;BME280;67071;51.144;17.050;2023-03-26T04:38:51;99230.70;;;9.64;66.18
77879;BME280;67071;51.144;17.050;2023-03-26T04:42:09;99222.25;;;9.68;66.13
77879;BME280;67071;51.144;17.050;2023-03-26T04:45:24;99216.73;;;9.66;66.05
77879;BME280;67071;51.144;17.050;2023-03-26T04:48:39;99224.90;;;9.73;65.95
77879;BME280;67071;51.144;17.050;2023-03-26T04:51:54;99248.38;;;9.65;65.85
77879;BME280;67071;51.144;17.050;2023-03-26T04:58:36;99234.28;;;9.68;65.58
77879;BME280;67071;51.144;17.050;2023-03-26T05:01:52;99232.45;;;9.64;65.44
77879;BME280;67071;51.144;17.050;2023-03-26T05:05:20;99246.09;;;9.56;65.30
77879;BME280;67071;51.144;17.050;2023-03-26T05:08:35;99239.98;;;9.48;65.19
77879;BME280;67071;51.144;17.050;2023-03-26T05:11:50;99226.24;;;9.54;65.07
77879;BME280;67071;51.144;17.050;2023-03-26T05:15:11;99232.30;;;9.55;64.97
77879;BME280;67071;51.144;17.050;2023-03-26T05:18:27;99235.70;;;9.63;64.88
77879;BME280;67071;51.144;17.050;2023-03-26T05:21:41;99231.59;;;9.26;64.91
77879;BME280;67071;51.144;17.050;2023-03-26T05:25:02;99228.42;;;9.52;64.82
77879;BME280;67071;51.144;17.050;2023-03-26T05:28:19;99235.02;;;9.65;64.79
77879;BME280;67071;51.144;17.050;2023-03-26T05:31:40;99235.82;;;9.74;64.76
77879;BME280;67071;51.144;17.050;2023-03-26T05:34:55;99232.52;;;9.87;64.72
77879;BME280;67071;51.144;17.050;2023-03-26T05:38:10;99228.22;;;10.02;64.69
77879;BME280;67071;51.144;17.050;2023-03-26T05:41:29;99227.44;;;10.01;64.67
77879;BME280;67071;51.144;17.050;2023-03-26T05:44:44;99228.73;;;10.04;64.62
77879;BME280;67071;51.144;17.050;2023-03-26T05:48:02;99228.70;;;10.06;64.57
77879;BME280;67071;51.144;17.050;2023-03-26T05:51:16;99232.73;;;10.11;64.52
77879;BME280;67071;51.144;17.050;2023-03-26T05:54:33;99232.29;;;10.14;64.46
77879;BME280;67071;51.144;17.050;2023-03-26T05:57:48;99229.62;;;10.11;64.41
77879;BME280;67071;51.144;17.050;2023-03-26T06:01:10;99231.44;;;10.32;64.32
77879;BME280;67071;51.144;17.050;2023-03-26T06:04:30;99234.28;;;10.47;64.25
77879;BME280;67071;51.144;17.050;2023-03-26T06:07:45;99238.37;;;10.38;64.20
77879;BME280;67071;51.144;17.050;2023-03-26T06:11:33;99238.27;;;10.36;64.13
77879;BME280;67071;51.144;17.050;2023-03-26T06:15:00;99235.90;;;10.55;64.02
77879;BME280;67071;51.144;17.050;2023-03-26T06:18:14;99239.69;;;10.56;63.94
77879;BME280;67071;51.144;17.050;2023-03-26T06:21:32;99244.07;;;10.75;63.87
77879;BME280;67071;51.144;17.050;2023-03-26T06:24:51;99241.43;;;10.86;63.80
77879;BME280;67071;51.144;17.050;2023-03-26T06:28:06;99245.27;;;10.85;63.73
77879;BME280;67071;51.144;17.050;2023-03-26T06:31:21;99239.88;;;10.96;63.64
77879;BME280;67071;51.144;17.050;2023-03-26T06:34:38;99243.37;;;10.99;63.57
77879;BME280;67071;51.144;17.050;2023-03-26T06:37:53;99247.22;;;11.03;63.48
77879;BME280;67071;51.144;17.050;2023-03-26T06:41:07;99246.16;;;11.01;63.37
77879;BME280;67071;51.144;17.050;2023-03-26T06:44:22;99248.58;;;11.03;63.28
77879;BME280;67071;51.144;17.050;2023-03-26T06:47:40;99253.98;;;11.12;63.18
77879;BME280;67071;51.144;17.050;2023-03-26T06:50:54;99241.11;;;11.17;63.04
77879;BME280;67071;51.144;17.050;2023-03-26T06:54:12;99236.92;;;11.23;62.95
77879;BME280;67071;51.144;17.050;2023-03-26T06:57:27;99244.18;;;11.52;62.82
77879;BME280;67071;51.144;17.050;2023-03-26T07:00:41;99242.65;;;11.59;62.68
77879;BME280;67071;51.144;17.050;2023-03-26T07:03:57;99247.30;;;11.52;62.55
77879;BME280;67071;51.144;17.050;2023-03-26T07:07:15;99252.28;;;11.61;62.37
77879;BME280;67071;51.144;17.050;2023-03-26T07:10:30;99247.84;;;11.79;62.20
77879;BME280;67071;51.144;17.050;2023-03-26T07:13:50;99250.36;;;11.93;61.97
77879;BME280;67071;51.144;17.050;2023-03-26T07:17:05;99261.27;;;11.97;61.79
77879;BME280;67071;51.144;17.050;2023-03-26T07:20:20;99252.58;;;11.98;61.63
77879;BME280;67071;51.144;17.050;2023-03-26T07:23:36;99253.25;;;12.14;61.37
77879;BME280;67071;51.144;17.050;2023-03-26T07:27:09;99246.44;;;12.21;61.11
77879;BME280;67071;51.144;17.050;2023-03-26T07:34:10;99281.18;;;12.39;60.52
77879;BME280;67071;51.144;17.050;2023-03-26T07:48:21;99264.53;;;12.48;59.27
77879;BME280;67071;51.144;17.050;2023-03-26T07:51:43;99261.06;;;12.56;58.93
77879;BME280;67071;51.144;17.050;2023-03-26T07:55:02;99251.81;;;13.14;58.70
77879;BME280;67071;51.144;17.050;2023-03-26T08:16:23;99242.70;;;13.23;57.27
77879;BME280;67071;51.144;17.050;2023-03-26T08:20:25;99240.34;;;12.84;57.03
77879;BME280;67071;51.144;17.050;2023-03-26T08:27:38;99238.69;;;11.99;56.87
77879;BME280;67071;51.144;17.050;2023-03-26T08:31:02;99237.46;;;12.38;56.95
77879;BME280;67071;51.144;17.050;2023-03-26T08:34:17;99236.99;;;12.71;57.16
77879;BME280;67071;51.144;17.050;2023-03-26T08:37:32;99232.58;;;12.53;57.29
77879;BME280;67071;51.144;17.050;2023-03-26T08:55:19;99218.98;;;13.80;57.09
77879;BME280;67071;51.144;17.050;2023-03-26T09:16:46;99208.73;;;14.60;54.56
77879;BME280;67071;51.144;17.050;2023-03-26T09:23:51;99228.15;;;12.46;53.97
77879;BME280;67071;51.144;17.050;2023-03-26T09:38:28;99216.95;;;10.85;55.43
77879;BME280;67071;51.144;17.050;2023-03-26T09:45:48;99211.90;;;12.28;57.12
77879;BME280;67071;51.144;17.050;2023-03-26T09:59:56;99214.33;;;13.93;59.25
77879;BME280;67071;51.144;17.050;2023-03-26T10:21:09;99206.44;;;15.50;58.22
77879;BME280;67071;51.144;17.050;2023-03-26T10:28:25;99192.59;;;15.07;57.32
77879;BME280;67071;51.144;17.050;2023-03-26T10:32:05;99190.98;;;15.14;56.85
77879;BME280;67071;51.144;17.050;2023-03-26T10:35:37;99189.22;;;15.24;56.47
77879;BME280;67071;51.144;17.050;2023-03-26T10:46:01;99174.54;;;16.04;54.67
77879;BME280;67071;51.144;17.050;2023-03-26T10:53:21;99169.52;;;15.89;52.56
77879;BME280;67071;51.144;17.050;2023-03-26T10:56:48;99178.05;;;15.78;51.39
77879;BME280;67071;51.144;17.050;2023-03-26T11:00:13;99196.64;;;15.01;50.62
77879;BME280;67071;51.144;17.050;2023-03-26T11:03:38;99196.05;;;14.32;50.24
77879;BME280;67071;51.144;17.050;2023-03-26T11:20:52;99166.49;;;17.09;53.37
77879;BME280;67071;51.144;17.050;2023-03-26T11:35:28;99150.15;;;22.90;48.69
77879;BME280;67071;51.144;17.050;2023-03-26T11:38:49;99152.46;;;23.30;46.53
77879;BME280;67071;51.144;17.050;2023-03-26T11:42:07;99153.92;;;20.52;44.38
77879;BME280;67071;51.144;17.050;2023-03-26T11:45:27;99152.35;;;18.52;43.38
77879;BME280;67071;51.144;17.050;2023-03-26T11:48:47;99157.23;;;16.89;43.40
77879;BME280;67071;51.144;17.050;2023-03-26T11:52:03;99162.55;;;16.23;44.05
77879;BME280;67071;51.144;17.050;2023-03-26T11:55:17;99163.01;;;15.72;44.88
77879;BME280;67071;51.144;17.050;2023-03-26T11:58:40;99148.40;;;15.18;45.72
77879;BME280;67071;51.144;17.050;2023-03-26T12:02:14;99146.95;;;14.91;46.48
77879;BME280;67071;51.144;17.050;2023-03-26T12:05:35;99149.95;;;15.27;47.30
77879;BME280;67071;51.144;17.050;2023-03-26T12:09:00;99138.38;;;15.41;47.89
77879;BME280;67071;51.144;17.050;2023-03-26T12:12:16;99140.91;;;14.96;48.30
77879;BME280;67071;51.144;17.050;2023-03-26T12:15:31;99134.59;;;14.89;48.57
77879;BME280;67071;51.144;17.050;2023-03-26T12:25:38;99123.77;;;15.16;49.20
77879;BME280;67071;51.144;17.050;2023-03-26T12:28:53;99125.48;;;15.50;49.28
77879;BME280;67071;51.144;17.050;2023-03-26T12:32:17;99117.14;;;16.20;49.17
77879;BME280;67071;51.144;17.050;2023-03-26T12:35:34;99117.64;;;16.46;48.86
77879;BME280;67071;51.144;17.050;2023-03-26T12:38:49;99120.05;;;16.25;48.34
77879;BME280;67071;51.144;17.050;2023-03-26T12:45:50;99097.53;;;17.37;47.03
77879;BME280;67071;51.144;17.050;2023-03-26T12:49:10;99101.85;;;17.38;46.14
77879;BME280;67071;51.144;17.050;2023-03-26T12:52:42;99093.80;;;18.54;45.13
77879;BME280;67071;51.144;17.050;2023-03-26T12:56:11;99095.27;;;18.98;44.08
77879;BME280;67071;51.144;17.050;2023-03-26T13:06:51;99080.16;;;20.29;41.36
77879;BME280;67071;51.144;17.050;2023-03-26T13:10:35;99067.76;;;22.17;40.24
77879;BME280;67071;51.144;17.050;2023-03-26T13:14:03;99063.94;;;22.98;38.56
77879;BME280;67071;51.144;17.050;2023-03-26T13:21:11;99073.26;;;19.96;36.22
77879;BME280;67071;51.144;17.050;2023-03-26T13:29:15;99059.87;;;18.54;36.79
77879;BME280;67071;51.144;17.050;2023-03-26T13:40:09;99049.69;;;19.57;36.92
77879;BME280;67071;51.144;17.050;2023-03-26T13:43:49;99061.51;;;19.69;36.88
77879;BME280;67071;51.144;17.050;2023-03-26T13:47:24;99049.07;;;21.39;36.76
77879;BME280;67071;51.144;17.050;2023-03-26T13:50:43;99048.00;;;20.55;36.21
77879;BME280;67071;51.144;17.050;2023-03-26T13:57:40;99058.05;;;19.34;36.01
77879;BME280;67071;51.144;17.050;2023-03-26T14:04:50;99052.60;;;18.77;36.53
77879;BME280;67071;51.144;17.050;2023-03-26T14:15:43;99048.83;;;17.64;37.53
77879;BME280;67071;51.144;17.050;2023-03-26T14:22:51;99055.49;;;16.45;38.39
77879;BME280;67071;51.144;17.050;2023-03-26T14:33:11;99023.27;;;16.10;39.83
77879;BME280;67071;51.144;17.050;2023-03-26T14:37:06;99026.56;;;16.16;40.21
77879;BME280;67071;51.144;17.050;2023-03-26T14:40:28;99014.17;;;16.42;40.58
77879;BME280;67071;51.144;17.050;2023-03-26T14:47:23;99016.34;;;16.25;40.95
77879;BME280;67071;51.144;17.050;2023-03-26T14:50:50;99012.83;;;15.79;41.10
77879;BME280;67071;51.144;17.050;2023-03-26T14:54:12;99012.80;;;15.51;41.31
77879;BME280;67071;51.144;17.050;2023-03-26T15:19:15;98995.60;;;16.18;43.16
77879;BME280;67071;51.144;17.050;2023-03-26T15:51:21;98983.84;;;14.36;45.30
77879;BME280;67071;51.144;17.050;2023-03-26T15:58:50;99022.64;;;13.26;46.03
77879;BME280;67071;51.144;17.050;2023-03-26T16:02:21;99032.81;;;12.77;46.42
77879;BME280;67071;51.144;17.050;2023-03-26T16:09:25;99010.12;;;12.21;47.46
77879;BME280;67071;51.144;17.050;2023-03-26T16:20:18;98995.27;;;12.03;49.37
77879;BME280;67071;51.144;17.050;2023-03-26T16:24:10;98993.19;;;12.05;49.99
77879;BME280;67071;51.144;17.050;2023-03-26T16:27:24;98987.21;;;11.94;50.46
77879;BME280;67071;51.144;17.050;2023-03-26T16:31:24;98969.80;;;12.02;50.88
77879;BME280;67071;51.144;17.050;2023-03-26T16:34:56;98973.15;;;12.07;51.40
77879;BME280;67071;51.144;17.050;2023-03-26T16:38:14;98974.26;;;12.06;51.69
77879;BME280;67071;51.144;17.050;2023-03-26T16:45:13;98971.27;;;12.12;52.22
77879;BME280;67071;51.144;17.050;2023-03-26T16:52:41;98966.03;;;12.05;52.64
77879;BME280;67071;51.144;17.050;2023-03-26T16:56:05;98966.65;;;11.97;52.80
77879;BME280;67071;51.144;17.050;2023-03-26T16:59:54;98960.45;;;11.90;52.91
77879;BME280;67071;51.144;17.050;2023-03-26T17:28:57;98966.12;;;11.01;54.34
77879;BME280;67071;51.144;17.050;2023-03-26T17:32:15;98971.66;;;11.07;54.56
77879;BME280;67071;51.144;17.050;2023-03-26T17:43:02;98970.79;;;10.87;55.14
77879;BME280;67071;51.144;17.050;2023-03-26T17:49:51;98976.94;;;10.78;55.54
77879;BME280;67071;51.144;17.050;2023-03-26T17:53:17;98979.25;;;10.78;55.71
77879;BME280;67071;51.144;17.050;2023-03-26T17:56:36;98976.85;;;10.77;55.85
77879;BME280;67071;51.144;17.050;2023-03-26T17:59:57;98975.90;;;10.77;55.99
77879;BME280;67071;51.144;17.050;2023-03-26T18:03:28;98974.54;;;10.77;56.11
77879;BME280;67071;51.144;17.050;2023-03-26T18:17:46;98986.43;;;10.72;56.64
77879;BME280;67071;51.144;17.050;2023-03-26T18:21:06;98994.60;;;10.65;56.80
77879;BME280;67071;51.144;17.050;2023-03-26T18:24:30;98992.90;;;10.55;56.94
77879;BME280;67071;51.144;17.050;2023-03-26T18:27:46;98988.19;;;10.54;57.13
77879;BME280;67071;51.144;17.050;2023-03-26T18:34:31;98991.81;;;10.22;57.56
77879;BME280;67071;51.144;17.050;2023-03-26T18:37:55;98982.55;;;10.12;57.82
77879;BME280;67071;51.144;17.050;2023-03-26T18:41:40;98979.00;;;9.98;58.15
77879;BME280;67071;51.144;17.050;2023-03-26T18:44:56;98973.29;;;9.93;58.49
77879;BME280;67071;51.144;17.050;2023-03-26T18:48:33;98973.57;;;9.91;58.86
77879;BME280;67071;51.144;17.050;2023-03-26T18:51:48;98966.78;;;9.87;59.19
77879;BME280;67071;51.144;17.050;2023-03-26T18:55:12;98963.68;;;9.87;59.54
77879;BME280;67071;51.144;17.050;2023-03-26T18:58:38;98965.44;;;9.87;59.87
77879;BME280;67071;51.144;17.050;2023-03-26T19:02:05;98958.19;;;9.89;60.21
77879;BME280;67071;51.144;17.050;2023-03-26T19:05:25;98961.67;;;9.92;60.50
77879;BME280;67071;51.144;17.050;2023-03-26T19:08:44;98960.25;;;9.88;60.75
77879;BME280;67071;51.144;17.050;2023-03-26T19:12:05;98946.36;;;9.85;61.01
77879;BME280;67071;51.144;17.050;2023-03-26T19:15:22;98949.28;;;9.82;61.22
77879;BME280;67071;51.144;17.050;2023-03-26T19:18:40;98951.27;;;9.83;61.42
77879;BME280;67071;51.144;17.050;2023-03-26T19:21:55;98948.56;;;9.83;61.62
77879;BME280;67071;51.144;17.050;2023-03-26T19:25:23;98941.58;;;9.82;61.78
77879;BME280;67071;51.144;17.050;2023-03-26T19:28:48;98939.05;;;9.79;61.96
77879;BME280;67071;51.144;17.050;2023-03-26T19:35:36;98925.63;;;9.74;62.24
77879;BME280;67071;51.144;17.050;2023-03-26T19:38:53;98933.79;;;9.72;62.38
77879;BME280;67071;51.144;17.050;2023-03-26T19:42:24;98936.49;;;9.72;62.51
77879;BME280;67071;51.144;17.050;2023-03-26T19:45:41;98935.80;;;9.73;62.64
77879;BME280;67071;51.144;17.050;2023-03-26T19:48:59;98936.26;;;9.71;62.75
77879;BME280;67071;51.144;17.050;2023-03-26T19:52:19;98932.64;;;9.68;62.86
77879;BME280;67071;51.144;17.050;2023-03-26T19:55:39;98939.86;;;9.66;62.97
77879;BME280;67071;51.144;17.050;2023-03-26T19:58:55;98929.16;;;9.65;63.06
77879;BME280;67071;51.144;17.050;2023-03-26T20:02:11;98932.59;;;9.64;63.15
77879;BME280;67071;51.144;17.050;2023-03-26T20:05:31;98936.40;;;9.70;63.25
77879;BME280;67071;51.144;17.050;2023-03-26T20:08:50;98930.52;;;9.65;63.35
77879;BME280;67071;51.144;17.050;2023-03-26T20:12:05;98931.70;;;9.69;63.45
77879;BME280;67071;51.144;17.050;2023-03-26T20:15:23;98929.42;;;9.66;63.54
77879;BME280;67071;51.144;17.050;2023-03-26T20:18:39;98926.87;;;9.66;63.64
77879;BME280;67071;51.144;17.050;2023-03-26T20:21:57;98917.21;;;9.62;63.73
77879;BME280;67071;51.144;17.050;2023-03-26T20:25:20;98913.80;;;9.57;63.80
77879;BME280;67071;51.144;17.050;2023-03-26T20:28:36;98912.15;;;9.58;63.88
77879;BME280;67071;51.144;17.050;2023-03-26T20:31:51;98904.98;;;9.58;63.95
77879;BME280;67071;51.144;17.050;2023-03-26T20:38:32;98898.76;;;9.57;64.11
77879;BME280;67071;51.144;17.050;2023-03-26T20:41:51;98900.42;;;9.56;64.16
77879;BME280;67071;51.144;17.050;2023-03-26T20:48:34;98888.66;;;9.56;64.25
77879;BME280;67071;51.144;17.050;2023-03-26T20:51:51;98889.55;;;9.51;64.27
77879;BME280;67071;51.144;17.050;2023-03-26T20:55:08;98886.73;;;9.50;64.29
77879;BME280;67071;51.144;17.050;2023-03-26T20:58:24;98885.06;;;9.44;64.32
77879;BME280;67071;51.144;17.050;2023-03-26T21:01:40;98879.86;;;9.41;64.35
77879;BME280;67071;51.144;17.050;2023-03-26T21:04:56;98875.84;;;9.39;64.36
77879;BME280;67071;51.144;17.050;2023-03-26T21:08:16;98875.66;;;9.35;64.39
77879;BME280;67071;51.144;17.050;2023-03-26T21:15:29;98865.22;;;9.29;64.46
77879;BME280;67071;51.144;17.050;2023-03-26T21:18:45;98870.17;;;9.24;64.47
77879;BME280;67071;51.144;17.050;2023-03-26T21:22:11;98880.87;;;9.22;64.52
77879;BME280;67071;51.144;17.050;2023-03-26T21:26:08;98886.69;;;9.23;64.57
77879;BME280;67071;51.144;17.050;2023-03-26T21:29:26;98891.30;;;9.22;64.63
77879;BME280;67071;51.144;17.050;2023-03-26T21:32:43;98887.03;;;9.19;64.66
77879;BME280;67071;51.144;17.050;2023-03-26T21:35:59;98881.23;;;9.18;64.72
77879;BME280;67071;51.144;17.050;2023-03-26T21:39:14;98871.97;;;9.15;64.79
77879;BME280;67071;51.144;17.050;2023-03-26T21:42:32;98871.60;;;9.12;64.86
77879;BME280;67071;51.144;17.050;2023-03-26T21:45:48;98871.77;;;9.11;64.94
77879;BME280;67071;51.144;17.050;2023-03-26T21:49:07;98871.20;;;9.12;65.04
77879;BME280;67071;51.144;17.050;2023-03-26T21:52:23;98860.80;;;9.12;65.14
77879;BME280;67071;51.144;17.050;2023-03-26T21:59:21;98854.66;;;9.23;65.31
77879;BME280;67071;51.144;17.050;2023-03-26T22:06:09;98865.67;;;9.26;65.49
77879;BME280;67071;51.144;17.050;2023-03-26T22:09:37;98863.33;;;9.29;65.57
77879;BME280;67071;51.144;17.050;2023-03-26T22:12:53;98855.63;;;9.29;65.63
77879;BME280;67071;51.144;17.050;2023-03-26T22:16:08;98860.27;;;9.20;65.72
77879;BME280;67071;51.144;17.050;2023-03-26T22:19:29;98868.73;;;9.29;65.74
77879;BME280;67071;51.144;17.050;2023-03-26T22:22:47;98865.42;;;9.32;65.78
77879;BME280;67071;51.144;17.050;2023-03-26T22:26:03;98867.48;;;9.31;65.82
77879;BME280;67071;51.144;17.050;2023-03-26T22:29:18;98865.90;;;9.30;65.86
77879;BME280;67071;51.144;17.050;2023-03-26T22:32:33;98862.69;;;9.28;65.88
77879;BME280;67071;51.144;17.050;2023-03-26T22:35:54;98869.80;;;9.24;65.91
77879;BME280;67071;51.144;17.050;2023-03-26T22:39:09;98870.98;;;9.25;65.93
77879;BME280;67071;51.144;17.050;2023-03-26T22:42:27;98857.81;;;9.21;65.96
77879;BME280;67071;51.144;17.050;2023-03-26T22:45:59;98866.86;;;9.20;66.02
77879;BME280;67071;51.144;17.050;2023-03-26T22:49:14;98871.53;;;9.17;66.03
77879;BME280;67071;51.144;17.050;2023-03-26T22:52:29;98872.22;;;9.09;66.06
77879;BME280;67071;51.144;17.050;2023-03-26T22:55:45;98873.47;;;9.07;66.12
77879;BME280;67071;51.144;17.050;2023-03-26T22:59:00;98871.61;;;9.05;66.17
77879;BME280;67071;51.144;17.050;2023-03-26T23:02:15;98875.26;;;9.05;66.21
77879;BME280;67071;51.144;17.050;2023-03-26T23:05:30;98879.02;;;8.81;66.33
77879;BME280;67071;51.144;17.050;2023-03-26T23:08:45;98877.87;;;8.94;66.37
77879;BME280;67071;51.144;17.050;2023-03-26T23:12:00;98867.13;;;8.98;66.44
77879;BME280;67071;51.144;17.050;2023-03-26T23:15:21;98872.53;;;8.98;66.51
77879;BME280;67071;51.144;17.050;2023-03-26T23:18:37;98867.83;;;8.97;66.57
77879;BME280;67071;51.144;17.050;2023-03-26T23:21:55;98864.49;;;8.93;66.63
77879;BME280;67071;51.144;17.050;2023-03-26T23:25:11;98867.77;;;8.93;66.70
77879;BME280;67071;51.144;17.050;2023-03-26T23:28:31;98869.22;;;8.95;66.76
77879;BME280;67071;51.144;17.050;2023-03-26T23:31:51;98869.66;;;8.92;66.82
77879;BME280;67071;51.144;17.050;2023-03-26T23:35:08;98866.69;;;8.91;66.90
77879;BME280;67071;51.144;17.050;2023-03-26T23:38:23;98865.91;;;8.91;66.96
77879;BME280;67071;51.144;17.050;2023-03-26T23:41:42;98871.15;;;8.92;67.02
77879;BME280;67071;51.144;17.050;2023-03-26T23:44:56;98875.77;;;8.91;67.08
77879;BME280;67071;51.144;17.050;2023-03-26T23:48:16;98880.20;;;8.85;67.15
77879;BME280;67071;51.144;17.050;2023-03-26T23:51:32;98890.84;;;8.95;67.19
77879;BME280;67071;51.144;17.050;2023-03-26T23:54:48;98901.65;;;8.95;67.26
77879;BME280;67071;51.144;17.050;2023-03-26T23:58:10;98895.94;;;8.96;67.31
